Time,TemperatureF,DewpointF,PressureIn,WindDirection,WindDirectionDegrees,WindSpeedMPH,WindSpeedGustMPH,Humidity,HourlyPrecipIn,Conditions,Clouds,dailyrainin,SoftwareType,DateUTC
2013-05-03 00:02:00,35.2,31.6,29.42,North,0,4.0,6.2,87,0.00,,,0.00,WUHU216HW,2013-05-03 08:02:00,
2013-05-03 00:07:00,35.2,31.6,29.42,NNE,23,4.2,6.2,87,0.00,,,0.00,WUHU216HW,2013-05-03 08:07:00,
2013-05-03 00:12:00,34.8,31.3,29.42,NNE,23,0.6,4.2,87,0.00,,,0.00,WUHU216HW,2013-05-03 08:12:00,
2013-05-03 00:17:00,35.0,31.4,29.42,NNE,23,2.4,2.4,87,0.00,,,0.00,WUHU216HW,2013-05-03 08:17:00,
2013-05-03 00:22:00,34.8,31.3,29.42,NNE,23,1.1,2.4,87,0.00,,,0.00,WUHU216HW,2013-05-03 08:22:00,
2013-05-03 00:27:00,34.8,31.3,29.42,NNE,23,0.0,2.4,87,0.00,,,0.00,WUHU216HW,2013-05-03 08:27:00,
2013-05-03 00:32:00,34.8,31.3,29.42,NNE,23,0.0,0.8,87,0.00,,,0.00,WUHU216HW,2013-05-03 08:32:00,
2013-05-03 00:37:00,34.8,31.3,29.42,NNE,23,0.0,1.7,87,0.00,,,0.00,WUHU216HW,2013-05-03 08:37:00,
2013-05-03 00:42:00,34.8,31.3,29.42,NNE,23,1.1,2.9,87,0.00,,,0.00,WUHU216HW,2013-05-03 08:42:00,
2013-05-03 00:47:00,34.7,31.1,29.42,NNE,23,0.0,2.9,87,0.00,,,0.00,WUHU216HW,2013-05-03 08:47:00,
2013-05-03 00:52:00,34.7,31.1,29.42,NNE,23,0.0,3.1,87,0.00,,,0.00,WUHU216HW,2013-05-03 08:52:00,
2013-05-03 00:57:00,34.7,31.1,29.42,NNE,23,0.0,3.1,87,0.00,,,0.00,WUHU216HW,2013-05-03 08:57:00,
2013-05-03 01:02:00,34.7,31.1,29.42,NNE,23,0.8,1.7,87,0.00,,,0.00,WUHU216HW,2013-05-03 09:02:00,
2013-05-03 01:07:00,34.7,31.1,29.42,NNE,23,0.4,1.1,87,0.00,,,0.00,WUHU216HW,2013-05-03 09:07:00,
2013-05-03 01:12:00,34.5,30.9,29.42,NNE,23,2.0,2.0,87,0.00,,,0.00,WUHU216HW,2013-05-03 09:12:00,
2013-05-03 01:17:00,34.5,30.9,29.42,NNE,23,2.0,2.9,87,0.00,,,0.00,WUHU216HW,2013-05-03 09:17:00,
2013-05-03 01:22:00,34.5,30.9,29.42,NNE,23,0.0,2.9,87,0.00,,,0.00,WUHU216HW,2013-05-03 09:22:00,
2013-05-03 01:27:00,34.5,30.9,29.42,NNE,23,2.9,2.9,87,0.00,,,0.00,WUHU216HW,2013-05-03 09:27:00,
2013-05-03 01:32:00,34.5,30.9,29.42,NNE,23,2.6,3.1,87,0.00,,,0.00,WUHU216HW,2013-05-03 09:32:00,
2013-05-03 01:37:00,34.5,31.2,29.42,NNE,23,3.8,3.8,88,0.00,,,0.00,WUHU216HW,2013-05-03 09:37:00,
2013-05-03 01:42:00,34.5,30.9,29.42,NNE,23,2.9,3.8,87,0.00,,,0.00,WUHU216HW,2013-05-03 09:42:00,
2013-05-03 01:47:00,34.5,30.9,29.42,NNE,23,0.0,2.9,87,0.00,,,0.00,WUHU216HW,2013-05-03 09:47:00,
2013-05-03 01:52:00,34.5,31.2,29.42,NNE,23,0.0,2.9,88,0.00,,,0.00,WUHU216HW,2013-05-03 09:52:00,
2013-05-03 01:57:00,34.5,30.9,29.42,NNE,23,0.0,0.8,87,0.00,,,0.00,WUHU216HW,2013-05-03 09:57:00,
2013-05-03 02:02:00,34.3,30.7,29.42,NNE,23,0.0,0.8,87,0.00,,,0.00,WUHU216HW,2013-05-03 10:02:00,
2013-05-03 02:07:00,34.3,30.7,29.42,North,0,0.0,0.6,87,0.00,,,0.00,WUHU216HW,2013-05-03 10:07:00,
2013-05-03 02:12:00,34.3,30.7,29.41,NNW,338,0.0,2.6,87,0.00,,,0.00,WUHU216HW,2013-05-03 10:12:00,
2013-05-03 02:17:00,34.3,30.7,29.42,NW,315,1.3,2.6,87,0.00,,,0.00,WUHU216HW,2013-05-03 10:17:00,
2013-05-03 02:22:00,34.3,30.7,29.42,WNW,293,0.0,2.6,87,0.00,,,0.00,WUHU216HW,2013-05-03 10:22:00,
2013-05-03 02:27:00,34.3,30.7,29.42,WNW,293,0.0,0.0,87,0.00,,,0.00,WUHU216HW,2013-05-03 10:27:00,
2013-05-03 02:32:00,34.3,30.7,29.42,WNW,293,0.0,0.0,87,0.00,,,0.00,WUHU216HW,2013-05-03 10:32:00,
2013-05-03 02:37:00,34.3,30.7,29.42,WNW,293,0.0,0.0,87,0.00,,,0.00,WUHU216HW,2013-05-03 10:37:00,
2013-05-03 02:42:00,34.3,30.7,29.42,WNW,293,0.0,0.0,87,0.00,,,0.00,WUHU216HW,2013-05-03 10:42:00,
2013-05-03 02:47:00,34.1,30.5,29.42,WNW,293,0.0,0.0,87,0.00,,,0.00,WUHU216HW,2013-05-03 10:47:00,
2013-05-03 02:52:00,34.1,30.5,29.42,WNW,293,0.0,0.0,87,0.00,,,0.00,WUHU216HW,2013-05-03 10:52:00,
2013-05-03 02:57:00,34.1,30.5,29.41,WNW,293,0.0,0.0,87,0.00,,,0.00,WUHU216HW,2013-05-03 10:57:00,
2013-05-03 03:02:00,34.1,30.5,29.41,WNW,293,0.0,0.0,87,0.00,,,0.00,WUHU216HW,2013-05-03 11:02:00,
2013-05-03 03:07:00,34.1,30.5,29.41,WNW,293,0.0,0.0,87,0.00,,,0.00,WUHU216HW,2013-05-03 11:07:00,
2013-05-03 03:12:00,33.9,30.4,29.41,WNW,293,0.0,0.0,87,0.00,,,0.00,WUHU216HW,2013-05-03 11:12:00,
2013-05-03 03:17:00,33.9,30.4,29.41,WNW,293,0.0,0.0,87,0.00,,,0.00,WUHU216HW,2013-05-03 11:17:00,
2013-05-03 03:22:00,33.8,30.2,29.40,WNW,293,0.0,0.0,87,0.00,,,0.00,WUHU216HW,2013-05-03 11:22:00,
2013-05-03 03:27:00,33.6,30.0,29.41,WNW,293,0.0,0.0,87,0.00,,,0.00,WUHU216HW,2013-05-03 11:27:00,
2013-05-03 03:32:00,33.6,30.0,29.41,WNW,293,0.0,0.0,87,0.00,,,0.00,WUHU216HW,2013-05-03 11:32:00,
2013-05-03 03:37:00,33.6,30.3,29.41,WSW,248,0.0,0.0,88,0.00,,,0.00,WUHU216HW,2013-05-03 11:37:00,
2013-05-03 03:42:00,33.6,30.3,29.41,WSW,248,0.0,0.0,88,0.00,,,0.00,WUHU216HW,2013-05-03 11:42:00,
2013-05-03 03:47:00,33.6,30.3,29.40,WSW,248,0.0,0.0,88,0.00,,,0.00,WUHU216HW,2013-05-03 11:47:00,
2013-05-03 03:52:00,33.4,30.2,29.41,WSW,248,0.0,0.0,88,0.00,,,0.00,WUHU216HW,2013-05-03 11:52:00,
2013-05-03 03:57:00,33.2,30.0,29.40,WSW,248,0.0,0.0,88,0.00,,,0.00,WUHU216HW,2013-05-03 11:57:00,
2013-05-03 04:02:00,33.0,29.8,29.40,WSW,248,0.0,0.0,88,0.00,,,0.00,WUHU216HW,2013-05-03 12:02:00,
2013-05-03 04:07:00,33.0,29.8,29.41,WSW,248,0.0,0.0,88,0.00,,,0.00,WUHU216HW,2013-05-03 12:07:00,
2013-05-03 04:12:00,32.9,29.7,29.40,WSW,248,0.0,0.0,88,0.00,,,0.00,WUHU216HW,2013-05-03 12:12:00,
2013-05-03 04:17:00,32.9,29.7,29.40,WSW,248,0.0,0.0,88,0.00,,,0.00,WUHU216HW,2013-05-03 12:17:00,
2013-05-03 04:22:00,32.9,29.7,29.40,WSW,248,0.0,0.0,88,0.00,,,0.00,WUHU216HW,2013-05-03 12:22:00,
2013-05-03 04:27:00,32.9,30.0,29.40,WSW,248,0.0,0.0,89,0.00,,,0.00,WUHU216HW,2013-05-03 12:27:00,
2013-05-03 04:32:00,32.9,30.0,29.40,WSW,248,0.0,0.0,89,0.00,,,0.00,WUHU216HW,2013-05-03 12:32:00,
2013-05-03 04:37:00,33.0,30.1,29.40,WSW,248,0.0,0.0,89,0.00,,,0.00,WUHU216HW,2013-05-03 12:37:00,
2013-05-03 04:42:00,32.9,30.0,29.40,WSW,248,0.0,0.0,89,0.00,,,0.00,WUHU216HW,2013-05-03 12:42:00,
2013-05-03 04:47:00,33.0,30.1,29.40,SW,225,0.0,0.0,89,0.00,,,0.00,WUHU216HW,2013-05-03 12:47:00,
2013-05-03 04:52:00,33.0,30.1,29.40,SSW,203,2.4,3.1,89,0.00,,,0.00,WUHU216HW,2013-05-03 12:52:00,
2013-05-03 04:57:00,33.0,30.1,29.40,South,180,0.0,3.1,89,0.00,,,0.00,WUHU216HW,2013-05-03 12:57:00,
2013-05-03 05:02:00,33.0,30.1,29.40,South,180,0.0,2.4,89,0.00,,,0.00,WUHU216HW,2013-05-03 13:02:00,
2013-05-03 05:07:00,33.2,30.3,29.40,SSW,203,0.0,1.7,89,0.00,,,0.00,WUHU216HW,2013-05-03 13:07:00,
2013-05-03 05:12:00,33.2,30.3,29.40,SSW,203,0.0,1.7,89,0.00,,,0.00,WUHU216HW,2013-05-03 13:12:00,
2013-05-03 05:17:00,33.2,30.3,29.40,SSW,203,0.0,0.0,89,0.00,,,0.00,WUHU216HW,2013-05-03 13:17:00,
2013-05-03 05:23:00,33.2,30.3,29.40,SSW,203,0.0,0.0,89,0.00,,,0.00,WUHU216HW,2013-05-03 13:23:00,
2013-05-03 05:28:00,33.2,30.3,29.40,SSW,203,0.0,0.0,89,0.00,,,0.00,WUHU216HW,2013-05-03 13:28:00,
2013-05-03 05:33:00,33.4,30.4,29.40,SSW,203,0.0,0.0,89,0.00,,,0.00,WUHU216HW,2013-05-03 13:33:00,
2013-05-03 05:38:00,33.4,30.4,29.40,SW,225,0.0,1.1,89,0.00,,,0.00,WUHU216HW,2013-05-03 13:38:00,
2013-05-03 05:43:00,33.4,30.4,29.40,SW,225,0.0,1.1,89,0.00,,,0.00,WUHU216HW,2013-05-03 13:43:00,
2013-05-03 05:48:00,33.4,30.4,29.40,SW,225,0.0,0.0,89,0.00,,,0.00,WUHU216HW,2013-05-03 13:48:00,
2013-05-03 05:53:00,33.4,30.4,29.41,SW,225,0.0,2.9,89,0.00,,,0.00,WUHU216HW,2013-05-03 13:53:00,
2013-05-03 05:58:00,33.4,30.4,29.41,SW,225,1.3,2.9,89,0.00,,,0.00,WUHU216HW,2013-05-03 13:58:00,
2013-05-03 06:03:00,33.4,30.4,29.41,SSW,203,0.0,1.3,89,0.00,,,0.00,WUHU216HW,2013-05-03 14:03:00,
2013-05-03 06:08:00,33.4,30.7,29.41,South,180,0.6,3.3,90,0.00,,,0.00,WUHU216HW,2013-05-03 14:08:00,
2013-05-03 06:13:00,33.4,30.7,29.41,SSW,203,2.2,3.3,90,0.00,,,0.00,WUHU216HW,2013-05-03 14:13:00,
2013-05-03 06:18:00,33.6,30.9,29.41,SSE,158,0.0,4.0,90,0.00,,,0.00,WUHU216HW,2013-05-03 14:18:00,
2013-05-03 06:23:00,33.6,30.9,29.41,SSE,158,2.2,4.0,90,0.00,,,0.00,WUHU216HW,2013-05-03 14:23:00,
2013-05-03 06:28:00,33.6,30.9,29.41,SSE,158,0.6,2.2,90,0.00,,,0.00,WUHU216HW,2013-05-03 14:28:00,
2013-05-03 06:33:00,33.6,30.9,29.41,SSE,158,0.0,0.6,90,0.00,,,0.00,WUHU216HW,2013-05-03 14:33:00,
2013-05-03 06:38:00,33.6,30.9,29.41,SSE,158,0.0,0.0,90,0.00,,,0.00,WUHU216HW,2013-05-03 14:38:00,
2013-05-03 06:43:00,33.6,30.9,29.41,SSE,158,0.0,0.0,90,0.00,,,0.00,WUHU216HW,2013-05-03 14:43:00,
2013-05-03 06:48:00,33.6,30.9,29.41,SSE,158,0.0,0.0,90,0.00,,,0.00,WUHU216HW,2013-05-03 14:48:00,
2013-05-03 06:53:00,33.6,30.9,29.41,SSE,158,0.0,0.0,90,0.00,,,0.00,WUHU216HW,2013-05-03 14:53:00,
2013-05-03 06:58:00,33.6,30.9,29.41,SSE,158,0.0,2.6,90,0.00,,,0.00,WUHU216HW,2013-05-03 14:58:00,
2013-05-03 07:03:00,33.8,31.1,29.41,SSE,158,0.8,2.6,90,0.00,,,0.00,WUHU216HW,2013-05-03 15:03:00,
2013-05-03 07:08:00,33.8,31.1,29.41,South,180,0.0,0.8,90,0.00,,,0.00,WUHU216HW,2013-05-03 15:08:00,
2013-05-03 07:13:00,33.9,31.2,29.41,South,180,0.0,0.8,90,0.00,,,0.00,WUHU216HW,2013-05-03 15:13:00,
2013-05-03 07:19:00,33.9,31.2,29.41,South,180,0.0,0.6,90,0.00,,,0.00,WUHU216HW,2013-05-03 15:19:00,
2013-05-03 07:24:00,34.1,31.4,29.41,South,180,0.0,0.0,90,0.00,,,0.00,WUHU216HW,2013-05-03 15:24:00,
2013-05-03 07:29:00,34.1,31.4,29.42,SSW,203,2.9,2.9,90,0.00,,,0.00,WUHU216HW,2013-05-03 15:29:00,
2013-05-03 07:34:00,34.1,31.4,29.42,South,180,0.0,2.9,90,0.00,,,0.00,WUHU216HW,2013-05-03 15:34:00,
2013-05-03 07:39:00,34.1,31.4,29.42,South,180,0.0,2.9,90,0.00,,,0.00,WUHU216HW,2013-05-03 15:39:00,
2013-05-03 07:44:00,34.3,31.6,29.42,SSW,203,2.9,3.3,90,0.00,,,0.00,WUHU216HW,2013-05-03 15:44:00,
2013-05-03 07:49:00,34.3,31.6,29.42,SSW,203,2.4,3.3,90,0.00,,,0.00,WUHU216HW,2013-05-03 15:49:00,
2013-05-03 07:54:00,34.3,31.6,29.42,SSW,203,0.0,2.9,90,0.00,,,0.00,WUHU216HW,2013-05-03 15:54:00,
2013-05-03 07:59:00,34.5,31.8,29.42,SSW,203,0.0,2.4,90,0.00,,,0.00,WUHU216HW,2013-05-03 15:59:00,
2013-05-03 08:04:00,34.7,32.0,29.42,SSW,203,0.0,1.1,90,0.00,,,0.00,WUHU216HW,2013-05-03 16:04:00,
2013-05-03 08:09:00,34.8,32.1,29.42,SSW,203,2.9,2.9,90,0.00,,,0.00,WUHU216HW,2013-05-03 16:09:00,
2013-05-03 08:14:00,35.2,32.5,29.42,SSW,203,0.0,2.9,90,0.00,,,0.00,WUHU216HW,2013-05-03 16:14:00,
2013-05-03 08:19:00,35.2,32.5,29.42,SSW,203,0.0,1.7,90,0.00,,,0.00,WUHU216HW,2013-05-03 16:19:00,
2013-05-03 08:24:00,35.4,32.7,29.42,SSW,203,0.0,1.7,90,0.00,,,0.00,WUHU216HW,2013-05-03 16:24:00,
2013-05-03 08:29:00,35.4,32.7,29.42,SW,225,0.6,0.6,90,0.00,,,0.00,WUHU216HW,2013-05-03 16:29:00,
2013-05-03 08:34:00,35.4,32.7,29.43,SW,225,0.0,0.6,90,0.00,,,0.00,WUHU216HW,2013-05-03 16:34:00,
2013-05-03 08:39:00,35.4,32.7,29.42,SW,225,1.5,1.5,90,0.00,,,0.00,WUHU216HW,2013-05-03 16:39:00,
2013-05-03 08:44:00,35.7,33.0,29.42,SW,225,0.0,1.5,90,0.00,,,0.00,WUHU216HW,2013-05-03 16:44:00,
2013-05-03 08:49:00,35.7,33.0,29.42,SW,225,0.0,0.0,90,0.00,,,0.00,WUHU216HW,2013-05-03 16:49:00,
2013-05-03 08:54:00,35.9,33.2,29.43,SW,225,0.0,0.0,90,0.00,,,0.00,WUHU216HW,2013-05-03 16:54:00,
2013-05-03 08:59:00,36.1,33.4,29.42,SW,225,0.0,0.0,90,0.00,,,0.00,WUHU216HW,2013-05-03 16:59:00,
2013-05-03 09:04:00,36.3,33.6,29.42,SW,225,0.0,0.0,90,0.00,,,0.00,WUHU216HW,2013-05-03 17:04:00,
2013-05-03 09:09:00,36.3,33.6,29.43,SW,225,0.0,0.0,90,0.00,,,0.00,WUHU216HW,2013-05-03 17:09:00,
2013-05-03 09:14:00,36.6,34.2,29.44,SW,225,0.0,0.0,91,0.00,,,0.00,WUHU216HW,2013-05-03 17:14:00,
2013-05-03 09:19:00,36.6,34.2,29.44,SW,225,0.0,0.0,91,0.00,,,0.00,WUHU216HW,2013-05-03 17:19:00,
2013-05-03 09:24:00,36.8,34.4,29.43,SW,225,0.0,0.0,91,0.00,,,0.00,WUHU216HW,2013-05-03 17:24:00,
2013-05-03 09:29:00,37.0,34.6,29.43,SW,225,0.0,0.0,91,0.00,,,0.00,WUHU216HW,2013-05-03 17:29:00,
2013-05-03 09:34:00,37.2,34.7,29.43,SW,225,0.0,0.0,91,0.00,,,0.00,WUHU216HW,2013-05-03 17:34:00,
2013-05-03 09:39:00,37.4,34.9,29.44,SW,225,0.0,0.0,91,0.00,,,0.00,WUHU216HW,2013-05-03 17:39:00,
2013-05-03 09:44:00,37.5,34.8,29.44,SW,225,0.0,0.0,90,0.00,,,0.00,WUHU216HW,2013-05-03 17:44:00,
2013-05-03 09:49:00,37.5,34.8,29.44,SW,225,0.0,0.0,90,0.00,,,0.00,WUHU216HW,2013-05-03 17:49:00,
2013-05-03 09:54:00,37.7,35.0,29.43,SW,225,0.0,0.0,90,0.00,,,0.00,WUHU216HW,2013-05-03 17:54:00,
2013-05-03 09:59:00,37.9,35.2,29.44,SW,225,0.0,0.0,90,0.00,,,0.00,WUHU216HW,2013-05-03 17:59:00,
2013-05-03 10:04:00,37.9,35.2,29.44,SW,225,0.0,0.0,90,0.00,,,0.00,WUHU216HW,2013-05-03 18:04:00,
2013-05-03 10:09:00,37.9,35.2,29.44,SW,225,0.0,0.0,90,0.00,,,0.00,WUHU216HW,2013-05-03 18:09:00,
2013-05-03 10:14:00,37.9,35.2,29.44,SW,225,0.0,0.0,90,0.00,,,0.00,WUHU216HW,2013-05-03 18:14:00,
2013-05-03 10:19:00,38.1,35.4,29.45,SW,225,0.0,0.0,90,0.00,,,0.00,WUHU216HW,2013-05-03 18:19:00,
2013-05-03 10:24:00,38.3,35.6,29.45,SW,225,0.0,0.0,90,0.00,,,0.00,WUHU216HW,2013-05-03 18:24:00,
2013-05-03 10:29:00,38.4,35.7,29.45,SW,225,0.0,0.0,90,0.00,,,0.00,WUHU216HW,2013-05-03 18:29:00,
2013-05-03 10:34:00,38.8,36.1,29.45,SW,225,0.0,0.0,90,0.00,,,0.00,WUHU216HW,2013-05-03 18:34:00,
2013-05-03 10:39:00,39.0,36.3,29.45,SW,225,0.0,0.0,90,0.00,,,0.00,WUHU216HW,2013-05-03 18:39:00,
2013-05-03 10:44:00,39.3,36.6,29.45,SW,225,0.0,0.0,90,0.00,,,0.00,WUHU216HW,2013-05-03 18:44:00,
2013-05-03 10:49:00,39.5,36.8,29.45,SW,225,0.0,0.0,90,0.00,,,0.00,WUHU216HW,2013-05-03 18:49:00,
2013-05-03 10:54:00,39.7,37.0,29.45,SW,225,0.0,0.0,90,0.00,,,0.00,WUHU216HW,2013-05-03 18:54:00,
2013-05-03 10:59:00,39.9,37.2,29.45,SW,225,0.0,0.0,90,0.00,,,0.00,WUHU216HW,2013-05-03 18:59:00,
2013-05-03 11:04:00,39.9,37.2,29.45,SW,225,1.1,1.1,90,0.00,,,0.00,WUHU216HW,2013-05-03 19:04:00,
2013-05-03 11:09:00,40.1,37.0,29.45,WSW,248,0.8,1.1,89,0.00,,,0.00,WUHU216HW,2013-05-03 19:09:00,
2013-05-03 11:14:00,40.4,37.4,29.46,WSW,248,1.1,1.1,89,0.00,,,0.00,WUHU216HW,2013-05-03 19:14:00,
2013-05-03 11:19:00,40.2,37.2,29.46,WSW,248,0.0,1.1,89,0.00,,,0.00,WUHU216HW,2013-05-03 19:19:00,
2013-05-03 11:24:00,40.4,37.4,29.46,SSW,203,0.0,1.1,89,0.00,,,0.00,WUHU216HW,2013-05-03 19:24:00,
2013-05-03 11:29:00,40.4,37.4,29.46,SSW,203,0.0,2.9,89,0.00,,,0.00,WUHU216HW,2013-05-03 19:29:00,
2013-05-03 11:34:00,40.2,37.2,29.46,SSW,203,0.0,2.9,89,0.00,,,0.00,WUHU216HW,2013-05-03 19:34:00,
2013-05-03 11:39:00,40.6,37.6,29.46,SW,225,0.0,0.0,89,0.00,,,0.00,WUHU216HW,2013-05-03 19:39:00,
2013-05-03 11:44:00,40.6,37.6,29.47,SW,225,0.0,1.5,89,0.00,,,0.00,WUHU216HW,2013-05-03 19:44:00,
2013-05-03 11:49:00,40.8,37.8,29.47,SW,225,0.0,1.5,89,0.00,,,0.00,WUHU216HW,2013-05-03 19:49:00,
2013-05-03 11:54:00,41.1,38.1,29.47,SW,225,0.0,2.6,89,0.00,,,0.00,WUHU216HW,2013-05-03 19:54:00,
2013-05-03 11:59:00,41.3,38.3,29.47,WSW,248,0.0,2.6,89,0.00,,,0.00,WUHU216HW,2013-05-03 19:59:00,
2013-05-03 12:04:00,41.5,38.5,29.47,SW,225,0.0,0.0,89,0.00,,,0.00,WUHU216HW,2013-05-03 20:04:00,
2013-05-03 12:09:00,41.7,38.7,29.47,SW,225,0.4,0.4,89,0.00,,,0.00,WUHU216HW,2013-05-03 20:09:00,
2013-05-03 12:14:00,41.7,38.7,29.47,West,270,1.5,1.5,89,0.00,,,0.00,WUHU216HW,2013-05-03 20:14:00,
2013-05-03 12:19:00,41.7,38.7,29.48,WSW,248,0.0,1.5,89,0.00,,,0.00,WUHU216HW,2013-05-03 20:19:00,
2013-05-03 12:24:00,41.5,38.2,29.47,WSW,248,0.0,1.5,88,0.00,,,0.00,WUHU216HW,2013-05-03 20:24:00,
2013-05-03 12:29:00,41.3,38.0,29.48,West,270,0.0,1.5,88,0.00,,,0.00,WUHU216HW,2013-05-03 20:29:00,
2013-05-03 12:34:00,41.3,38.0,29.48,SSW,203,1.1,1.5,88,0.00,,,0.00,WUHU216HW,2013-05-03 20:34:00,
2013-05-03 12:39:00,41.3,38.0,29.48,SW,225,1.3,1.3,88,0.00,,,0.00,WUHU216HW,2013-05-03 20:39:00,
2013-05-03 12:44:00,41.1,37.8,29.48,West,270,2.4,2.4,88,0.00,,,0.00,WUHU216HW,2013-05-03 20:44:00,
2013-05-03 12:49:00,41.1,37.8,29.48,SW,225,0.0,2.4,88,0.00,,,0.00,WUHU216HW,2013-05-03 20:49:00,
2013-05-03 12:54:00,41.1,37.8,29.48,WSW,248,1.1,2.4,88,0.00,,,0.00,WUHU216HW,2013-05-03 20:54:00,
2013-05-03 12:59:00,41.1,37.8,29.49,WNW,293,0.0,1.3,88,0.00,,,0.00,WUHU216HW,2013-05-03 20:59:00,
2013-05-03 13:04:00,41.5,38.2,29.48,SW,225,0.0,2.2,88,0.00,,,0.00,WUHU216HW,2013-05-03 21:04:00,
2013-05-03 13:09:00,41.5,38.2,29.49,SSW,203,0.0,2.2,88,0.00,,,0.00,WUHU216HW,2013-05-03 21:09:00,
2013-05-03 13:14:00,41.9,38.2,29.49,NW,315,4.4,4.4,87,0.00,,,0.00,WUHU216HW,2013-05-03 21:14:00,
2013-05-03 13:19:00,41.9,38.2,29.49,WNW,293,0.8,4.6,87,0.00,,,0.00,WUHU216HW,2013-05-03 21:19:00,
2013-05-03 13:24:00,41.9,38.2,29.49,NW,315,0.0,4.6,87,0.00,,,0.00,WUHU216HW,2013-05-03 21:24:00,
2013-05-03 13:29:00,41.9,37.9,29.49,WNW,293,0.0,4.0,86,0.00,,,0.00,WUHU216HW,2013-05-03 21:29:00,
2013-05-03 13:34:00,41.5,37.6,29.49,WSW,248,2.6,4.0,86,0.00,,,0.00,WUHU216HW,2013-05-03 21:34:00,
2013-05-03 13:39:00,41.7,37.7,29.49,SW,225,2.6,2.9,86,0.00,,,0.00,WUHU216HW,2013-05-03 21:39:00,
2013-05-03 13:44:00,41.7,37.7,29.50,SW,225,0.0,3.5,86,0.00,,,0.00,WUHU216HW,2013-05-03 21:44:00,
2013-05-03 13:49:00,41.7,37.7,29.50,WSW,248,0.0,3.5,86,0.00,,,0.00,WUHU216HW,2013-05-03 21:49:00,
2013-05-03 13:54:00,41.7,37.7,29.50,West,270,0.0,1.3,86,0.00,,,0.00,WUHU216HW,2013-05-03 21:54:00,
2013-05-03 13:59:00,42.0,38.1,29.50,SW,225,1.1,1.1,86,0.00,,,0.00,WUHU216HW,2013-05-03 21:59:00,
2013-05-03 14:04:00,42.2,38.3,29.50,WSW,248,1.3,1.3,86,0.00,,,0.00,WUHU216HW,2013-05-03 22:04:00,
2013-05-03 14:09:00,42.4,38.5,29.50,South,180,0.0,2.0,86,0.00,,,0.00,WUHU216HW,2013-05-03 22:09:00,
2013-05-03 14:14:00,42.0,37.8,29.50,SW,225,0.4,3.1,85,0.00,,,0.00,WUHU216HW,2013-05-03 22:14:00,
2013-05-03 14:19:00,42.4,38.2,29.50,NW,315,4.2,4.2,85,0.00,,,0.00,WUHU216HW,2013-05-03 22:19:00,
2013-05-03 14:24:00,42.4,38.2,29.50,NW,315,0.0,6.2,85,0.00,,,0.00,WUHU216HW,2013-05-03 22:24:00,
2013-05-03 14:29:00,42.6,38.3,29.50,SW,225,4.4,6.4,85,0.00,,,0.00,WUHU216HW,2013-05-03 22:29:00,
2013-05-03 14:34:00,42.4,37.9,29.50,West,270,0.6,6.4,84,0.00,,,0.00,WUHU216HW,2013-05-03 22:34:00,
2013-05-03 14:39:00,42.4,37.9,29.50,South,180,0.0,4.4,84,0.00,,,0.00,WUHU216HW,2013-05-03 22:39:00,
2013-05-03 14:44:00,42.4,37.9,29.50,West,270,0.0,1.5,84,0.00,,,0.00,WUHU216HW,2013-05-03 22:44:00,
2013-05-03 14:49:00,42.6,38.0,29.50,SSW,203,0.0,1.5,84,0.00,,,0.00,WUHU216HW,2013-05-03 22:49:00,
2013-05-03 14:54:00,42.6,38.0,29.50,SSW,203,0.0,0.0,84,0.00,,,0.00,WUHU216HW,2013-05-03 22:54:00,
2013-05-03 14:59:00,42.9,38.4,29.50,SSW,203,5.5,5.5,84,0.00,,,0.00,WUHU216HW,2013-05-03 22:59:00,
2013-05-03 15:04:00,42.6,38.0,29.50,WNW,293,4.4,5.5,84,0.00,,,0.00,WUHU216HW,2013-05-03 23:04:00,
2013-05-03 15:09:00,42.9,38.4,29.50,SSW,203,4.0,4.4,84,0.00,,,0.00,WUHU216HW,2013-05-03 23:09:00,
2013-05-03 15:14:00,42.9,38.4,29.50,WSW,248,2.4,4.4,84,0.00,,,0.00,WUHU216HW,2013-05-03 23:14:00,
2013-05-03 15:19:00,42.9,38.4,29.50,NW,315,4.6,4.6,84,0.00,,,0.00,WUHU216HW,2013-05-03 23:19:00,
2013-05-03 15:24:00,43.3,38.8,29.50,West,270,0.0,4.6,84,0.00,,,0.00,WUHU216HW,2013-05-03 23:24:00,
2013-05-03 15:29:00,43.7,39.4,29.50,West,270,1.3,4.6,85,0.00,,,0.00,WUHU216HW,2013-05-03 23:29:00,
2013-05-03 15:34:00,44.2,39.3,29.50,NW,315,3.3,3.3,84,0.00,,,0.00,WUHU216HW,2013-05-03 23:34:00,
2013-05-03 15:39:00,44.4,39.5,29.50,WNW,293,0.0,3.3,83,0.00,,,0.00,WUHU216HW,2013-05-03 23:39:00,
2013-05-03 15:45:00,44.6,39.7,29.50,WSW,248,1.5,3.3,83,0.00,,,0.00,WUHU216HW,2013-05-03 23:45:00,
2013-05-03 15:50:00,44.7,39.6,29.50,SSW,203,0.0,4.2,82,0.00,,,0.00,WUHU216HW,2013-05-03 23:50:00,
2013-05-03 15:55:00,44.9,39.8,29.50,SSW,203,1.5,4.2,82,0.00,,,0.00,WUHU216HW,2013-05-03 23:55:00,
2013-05-03 16:00:00,44.9,39.8,29.50,WNW,293,1.3,1.5,82,0.00,,,0.00,WUHU216HW,2013-05-04 00:00:00,
2013-05-03 16:05:00,45.1,39.9,29.50,WNW,293,0.4,4.4,82,0.00,,,0.00,WUHU216HW,2013-05-04 00:05:00,
2013-05-03 16:10:00,44.7,39.3,29.50,West,270,1.7,4.6,81,0.00,,,0.00,WUHU216HW,2013-05-04 00:10:00,
2013-05-03 16:15:00,44.7,39.3,29.50,West,270,1.7,4.6,81,0.00,,,0.00,WUHU216HW,2013-05-04 00:15:00,
2013-05-03 16:20:00,44.0,38.9,29.50,WNW,293,0.0,1.7,82,0.00,,,0.00,WUHU216HW,2013-05-04 00:20:00,
2013-05-03 16:25:00,43.7,38.5,29.50,WNW,293,0.0,1.1,82,0.00,,,0.00,WUHU216HW,2013-05-04 00:25:00,
2013-05-03 16:30:00,43.8,38.7,29.50,WNW,293,1.3,1.3,82,0.00,,,0.00,WUHU216HW,2013-05-04 00:30:00,
2013-05-03 16:35:00,44.0,39.0,29.50,WNW,293,0.0,1.3,82,0.00,,,0.00,WUHU216HW,2013-05-04 00:35:00,
2013-05-03 16:40:00,44.2,39.3,29.50,WNW,293,0.0,0.0,83,0.00,,,0.00,WUHU216HW,2013-05-04 00:40:00,
2013-05-03 16:45:00,44.0,38.9,29.50,WNW,293,0.0,0.0,82,0.00,,,0.00,WUHU216HW,2013-05-04 00:45:00,
2013-05-03 16:50:00,44.0,38.9,29.50,WNW,293,0.0,0.0,82,0.00,,,0.00,WUHU216HW,2013-05-04 00:50:00,
2013-05-03 16:55:00,44.0,38.9,29.50,West,270,0.0,0.0,82,0.00,,,0.00,WUHU216HW,2013-05-04 00:55:00,
2013-05-03 17:00:00,44.0,38.9,29.50,West,270,0.0,0.0,82,0.00,,,0.00,WUHU216HW,2013-05-04 01:00:00,
2013-05-03 17:05:00,43.8,38.7,29.50,SW,225,0.0,0.6,82,0.00,,,0.00,WUHU216HW,2013-05-04 01:05:00,
2013-05-03 17:10:00,43.8,38.7,29.50,SW,225,0.0,0.6,82,0.00,,,0.00,WUHU216HW,2013-05-04 01:10:00,
2013-05-03 17:15:00,43.8,39.0,29.50,SW,225,1.3,2.0,83,0.00,,,0.00,WUHU216HW,2013-05-04 01:15:00,
2013-05-03 17:20:00,43.7,38.8,29.50,SW,225,2.6,3.5,83,0.00,,,0.00,WUHU216HW,2013-05-04 01:20:00,
2013-05-03 17:25:00,43.7,38.8,29.50,WSW,248,2.6,3.5,83,0.00,,,0.00,WUHU216HW,2013-05-04 01:25:00,
2013-05-03 17:30:00,43.8,39.0,29.50,WSW,248,0.0,4.9,83,0.00,,,0.00,WUHU216HW,2013-05-04 01:30:00,
2013-05-03 17:35:00,43.8,39.0,29.50,SW,225,0.2,4.9,83,0.00,,,0.00,WUHU216HW,2013-05-04 01:35:00,
2013-05-03 17:40:00,43.8,39.0,29.50,West,270,0.0,1.1,83,0.00,,,0.00,WUHU216HW,2013-05-04 01:40:00,
2013-05-03 17:45:00,44.0,39.2,29.50,West,270,0.0,0.2,83,0.00,,,0.00,WUHU216HW,2013-05-04 01:45:00,
2013-05-03 17:50:00,44.0,38.9,29.50,West,270,0.0,1.7,82,0.00,,,0.00,WUHU216HW,2013-05-04 01:50:00,
2013-05-03 17:55:00,44.0,38.9,29.50,WSW,248,0.0,2.4,82,0.00,,,0.00,WUHU216HW,2013-05-04 01:55:00,
2013-05-03 18:00:00,44.0,38.9,29.50,SW,225,0.0,2.4,82,0.00,,,0.00,WUHU216HW,2013-05-04 02:00:00,
2013-05-03 18:05:00,44.2,39.0,29.50,West,270,0.0,2.6,82,0.00,,,0.00,WUHU216HW,2013-05-04 02:05:00,
2013-05-03 18:10:00,44.2,39.0,29.50,West,270,0.0,2.6,82,0.00,,,0.00,WUHU216HW,2013-05-04 02:10:00,
2013-05-03 18:15:00,44.2,39.0,29.50,WSW,248,0.0,0.0,82,0.00,,,0.00,WUHU216HW,2013-05-04 02:15:00,
2013-05-03 18:20:00,44.2,39.0,29.49,WSW,248,0.0,0.4,82,0.00,,,0.00,WUHU216HW,2013-05-04 02:20:00,
2013-05-03 18:25:00,44.2,39.0,29.50,WSW,248,0.0,0.4,82,0.00,,,0.00,WUHU216HW,2013-05-04 02:25:00,
2013-05-03 18:30:00,44.0,38.9,29.50,WSW,248,0.0,0.0,82,0.00,,,0.00,WUHU216HW,2013-05-04 02:30:00,
2013-05-03 18:35:00,43.8,38.7,29.50,WSW,248,0.0,0.0,82,0.00,,,0.00,WUHU216HW,2013-05-04 02:35:00,
2013-05-03 18:40:00,43.8,38.7,29.50,WSW,248,0.0,0.0,82,0.00,,,0.00,WUHU216HW,2013-05-04 02:40:00,
2013-05-03 18:45:00,43.7,38.5,29.50,WSW,248,0.0,0.0,82,0.00,,,0.00,WUHU216HW,2013-05-04 02:45:00,
2013-05-03 18:50:00,43.5,38.5,29.50,WSW,248,0.0,0.0,82,0.00,,,0.00,WUHU216HW,2013-05-04 02:50:00,
2013-05-03 18:55:00,43.5,38.3,29.50,WSW,248,0.0,0.0,82,0.00,,,0.00,WUHU216HW,2013-05-04 02:55:00,
2013-05-03 19:00:00,43.3,38.1,29.50,SSE,158,0.0,3.3,82,0.00,,,0.00,WUHU216HW,2013-05-04 03:00:00,
2013-05-03 19:05:00,43.3,38.1,29.50,SSE,158,0.0,3.3,82,0.00,,,0.00,WUHU216HW,2013-05-04 03:05:00,
2013-05-03 19:10:00,43.1,38.0,29.51,SSE,158,1.3,1.3,82,0.00,,,0.00,WUHU216HW,2013-05-04 03:10:00,
2013-05-03 19:15:00,43.1,38.0,29.51,SSE,158,0.0,1.3,82,0.00,,,0.00,WUHU216HW,2013-05-04 03:15:00,
2013-05-03 19:20:00,42.9,38.1,29.51,SSE,158,0.0,0.0,83,0.00,,,0.00,WUHU216HW,2013-05-04 03:20:00,
2013-05-03 19:25:00,43.1,38.3,29.51,SW,225,1.3,1.3,83,0.00,,,0.00,WUHU216HW,2013-05-04 03:25:00,
2013-05-03 19:31:00,42.9,38.1,29.50,SW,225,0.0,1.3,83,0.00,,,0.00,WUHU216HW,2013-05-04 03:31:00,
2013-05-03 19:36:00,42.9,38.1,29.50,SW,225,0.0,1.3,83,0.00,,,0.00,WUHU216HW,2013-05-04 03:36:00,
2013-05-03 19:41:00,42.8,37.9,29.51,SW,225,0.0,0.0,83,0.00,,,0.00,WUHU216HW,2013-05-04 03:41:00,
2013-05-03 19:46:00,42.6,37.7,29.51,SW,225,0.0,0.0,83,0.00,,,0.00,WUHU216HW,2013-05-04 03:46:00,
2013-05-03 19:51:00,42.6,37.7,29.51,SW,225,0.0,0.0,83,0.00,,,0.00,WUHU216HW,2013-05-04 03:51:00,
2013-05-03 19:56:00,42.6,37.7,29.50,SW,225,0.0,0.0,83,0.00,,,0.00,WUHU216HW,2013-05-04 03:56:00,
2013-05-03 20:01:00,42.6,37.7,29.51,SW,225,0.0,0.0,83,0.00,,,0.00,WUHU216HW,2013-05-04 04:01:00,
2013-05-03 20:06:00,42.4,37.2,29.50,SW,225,0.0,0.0,82,0.00,,,0.00,WUHU216HW,2013-05-04 04:06:00,
2013-05-03 20:11:00,42.2,37.4,29.51,SW,225,0.0,0.0,83,0.00,,,0.00,WUHU216HW,2013-05-04 04:11:00,
2013-05-03 20:16:00,42.0,37.2,29.51,SW,225,0.0,0.0,83,0.00,,,0.00,WUHU216HW,2013-05-04 04:16:00,
2013-05-03 20:21:00,42.0,37.2,29.50,SW,225,0.0,0.0,83,0.00,,,0.00,WUHU216HW,2013-05-04 04:21:00,
2013-05-03 20:26:00,42.0,37.2,29.51,SW,225,0.0,0.0,83,0.00,,,0.00,WUHU216HW,2013-05-04 04:26:00,
2013-05-03 20:32:00,42.0,37.2,29.51,SW,225,0.0,0.0,83,0.00,,,0.00,WUHU216HW,2013-05-04 04:32:00,
2013-05-03 20:37:00,41.9,37.2,29.51,SW,225,0.0,0.0,83,0.00,,,0.00,WUHU216HW,2013-05-04 04:37:00,
2013-05-03 20:41:00,41.9,37.0,29.51,SW,225,0.0,0.0,83,0.00,,,0.00,WUHU216HW,2013-05-04 04:41:00,
2013-05-03 20:47:00,41.7,36.8,29.51,SW,225,0.0,0.0,83,0.00,,,0.00,WUHU216HW,2013-05-04 04:47:00,
2013-05-03 20:52:00,41.5,36.6,29.51,SW,225,0.0,0.0,83,0.00,,,0.00,WUHU216HW,2013-05-04 04:52:00,
2013-05-03 20:57:00,41.5,36.6,29.51,SW,225,0.0,0.0,83,0.00,,,0.00,WUHU216HW,2013-05-04 04:57:00,
2013-05-03 21:02:00,41.5,36.6,29.51,WSW,248,0.0,0.0,83,0.00,,,0.00,WUHU216HW,2013-05-04 05:02:00,
2013-05-03 21:07:00,41.3,36.5,29.51,WSW,248,0.0,0.0,83,0.00,,,0.00,WUHU216HW,2013-05-04 05:07:00,
2013-05-03 21:12:00,41.3,36.5,29.51,WSW,248,0.0,0.0,83,0.00,,,0.00,WUHU216HW,2013-05-04 05:12:00,
2013-05-03 21:17:00,41.3,36.5,29.51,WSW,248,0.0,0.0,83,0.00,,,0.00,WUHU216HW,2013-05-04 05:17:00,
2013-05-03 21:22:00,40.8,36.3,29.51,WSW,248,0.0,0.0,83,0.00,,,0.00,WUHU216HW,2013-05-04 05:22:00,
2013-05-03 21:27:00,40.8,35.9,29.51,WSW,248,0.0,0.0,83,0.00,,,0.00,WUHU216HW,2013-05-04 05:27:00,
2013-05-03 21:32:00,40.6,35.8,29.51,WSW,248,0.0,0.0,83,0.00,,,0.00,WUHU216HW,2013-05-04 05:32:00,
2013-05-03 21:37:00,40.2,35.4,29.51,WSW,248,0.0,0.0,83,0.00,,,0.00,WUHU216HW,2013-05-04 05:37:00,
2013-05-03 21:42:00,40.1,35.3,29.51,WSW,248,0.0,0.0,83,0.00,,,0.00,WUHU216HW,2013-05-04 05:42:00,
2013-05-03 21:47:00,39.9,35.1,29.51,WSW,248,0.0,0.0,83,0.00,,,0.00,WUHU216HW,2013-05-04 05:47:00,
2013-05-03 21:52:00,39.5,34.8,29.51,NW,315,0.0,0.0,83,0.00,,,0.00,WUHU216HW,2013-05-04 05:52:00,
2013-05-03 21:57:00,39.5,34.8,29.52,NW,315,0.0,0.0,83,0.00,,,0.00,WUHU216HW,2013-05-04 05:57:00,
2013-05-03 22:02:00,39.3,34.6,29.52,NW,315,0.0,0.0,83,0.00,,,0.00,WUHU216HW,2013-05-04 06:02:00,
2013-05-03 22:07:00,39.0,34.5,29.51,NW,315,0.0,0.0,84,0.00,,,0.00,WUHU216HW,2013-05-04 06:07:00,
2013-05-03 22:12:00,38.8,34.4,29.52,NW,315,0.0,0.0,84,0.00,,,0.00,WUHU216HW,2013-05-04 06:12:00,
2013-05-03 22:17:00,38.4,34.0,29.52,NW,315,0.0,0.0,84,0.00,,,0.00,WUHU216HW,2013-05-04 06:17:00,
2013-05-03 22:22:00,38.1,33.6,29.52,NW,315,0.0,0.0,84,0.00,,,0.00,WUHU216HW,2013-05-04 06:22:00,
2013-05-03 22:27:00,37.9,33.5,29.51,NW,315,0.0,0.0,84,0.00,,,0.00,WUHU216HW,2013-05-04 06:27:00,
2013-05-03 22:32:00,37.9,33.5,29.52,NW,315,0.0,0.0,84,0.00,,,0.00,WUHU216HW,2013-05-04 06:32:00,
2013-05-03 22:37:00,37.5,33.4,29.52,NW,315,0.0,0.0,85,0.00,,,0.00,WUHU216HW,2013-05-04 06:37:00,
2013-05-03 22:42:00,37.5,33.4,29.51,NW,315,0.0,0.0,85,0.00,,,0.00,WUHU216HW,2013-05-04 06:42:00,
2013-05-03 22:47:00,37.4,33.2,29.51,NW,315,0.0,0.0,85,0.00,,,0.00,WUHU216HW,2013-05-04 06:47:00,
2013-05-03 22:52:00,37.2,33.0,29.51,NW,315,0.0,0.0,85,0.00,,,0.00,WUHU216HW,2013-05-04 06:52:00,
2013-05-03 22:57:00,37.2,33.0,29.51,NW,315,0.0,0.0,85,0.00,,,0.00,WUHU216HW,2013-05-04 06:57:00,
2013-05-03 23:02:00,37.0,32.9,29.52,NW,315,0.0,0.0,85,0.00,,,0.00,WUHU216HW,2013-05-04 07:02:00,
2013-05-03 23:07:00,36.8,33.0,29.52,NW,315,0.0,0.0,86,0.00,,,0.00,WUHU216HW,2013-05-04 07:07:00,
2013-05-03 23:12:00,36.8,33.0,29.52,NW,315,0.0,0.0,86,0.00,,,0.00,WUHU216HW,2013-05-04 07:12:00,
2013-05-03 23:17:00,36.6,32.8,29.52,NW,315,0.0,0.0,86,0.00,,,0.00,WUHU216HW,2013-05-04 07:17:00,
2013-05-03 23:22:00,36.5,32.6,29.52,NW,315,0.0,0.0,86,0.00,,,0.00,WUHU216HW,2013-05-04 07:22:00,
2013-05-03 23:27:00,36.3,32.4,29.52,NW,315,0.0,0.0,86,0.00,,,0.00,WUHU216HW,2013-05-04 07:27:00,
2013-05-03 23:32:00,36.3,32.4,29.52,NW,315,0.0,0.0,86,0.00,,,0.00,WUHU216HW,2013-05-04 07:32:00,
2013-05-03 23:37:00,36.3,32.4,29.52,NW,315,0.0,0.0,86,0.00,,,0.00,WUHU216HW,2013-05-04 07:37:00,
2013-05-03 23:42:00,36.1,32.2,29.52,NW,315,0.0,0.0,86,0.00,,,0.00,WUHU216HW,2013-05-04 07:42:00,
2013-05-03 23:47:00,36.1,32.2,29.52,NW,315,0.0,0.0,86,0.00,,,0.00,WUHU216HW,2013-05-04 07:47:00,
2013-05-03 23:52:00,36.1,32.2,29.52,NW,315,0.0,0.0,86,0.00,,,0.00,WUHU216HW,2013-05-04 07:52:00,
2013-05-03 23:57:00,36.1,32.2,29.52,NW,315,0.0,0.0,86,0.00,,,0.00,WUHU216HW,2013-05-04 07:57:00,